Blandinsville, Illinois
Current Conditions -  °F | °C
As of 2:15 PM on Sunday 25 Jan 2015 (Local Time) from KMQB Reporting Station
Light Snow Light Snow  
Wind Chill: 19°   Ceiling: 900
Heat Index: 31°   Visibility: 3mi
Dew Point: 30°   Wind: 20mph
Humidity: 95%   Direction: 20°NNE
Pressure: 29.8"   Gusts: 29mph
Location:  40.56°N, 90.87°W
Report Text: KMQB 252015Z AUTO 02017G25KT 3SM -SN OVC009 00/M01 A2980 RMK AO2 T10031010
Loading
Personal Weather Stations






























Interactive Weather Map New forecast layout! Learn more

10-Day Weather Forecast

Advertisements
Track Severe Weather on mobile